Airfield :







YOU CAN JOIN US ON...

 
LOGIN :

Register | Disclaimer

   EN    FR    IT 

 









Legend :    VFR   Marginal VFR   IFR   Intensive IFR   Very Intensive IFR
Visi :
Ceiling :
>= 8 km
>= 3000ft
5 to 8 km
1000 to 3000 ft
1500m to 5 km
500 to 1000 ft
800 to 1500m
200 to 500 ft
< 800m
< 200 ft
Symbols :   Thunderstorms  Fog  Heavy snow  Heavy precipitations  Wind > 20 kt






- Airport Elevation : 47 ft
- IATA code : PUJ


MDPC - Punta Cana Int.

CURRENT METAR :
  • 190100Z 06007KT 9999 BKN020 28/24 Q1014

EXPIRED METARs :
  • 190000Z 04007KT 9999 FEW020 28/23 Q1013
  • 182300Z 05008KT 9999 SCT020 28/24 Q1013

TAF TAF MDPC
Valid from the 19 at 00:00 until the 20 at 00:00 UTC


182200Z 1900/2000 06010KT 9999 SCT020
PROB30 1902/1908 8000 -TSRA FEW016CB BKN018 BKN070
BECMG 1903/1905 00000KT
MDCS FIR / North America



MET'MAP, your aeronautical weather chart ! - Copyright ORBIFLY December 2007 - Disclaimer

ORBIFLY MET'MAP TEAM :

Programming & Development : Alexandra Zaïnal
Concept & original design : Baudouin d'Aumeries
Assistance for programming : Marc-Olivier Méhu
Technical & hardware support : Manuel Goepfert

Contact : metmap@orbifly.com




SOURCES & CREDITS :

   NOAA